createdAt,value
2022-10-20T00:01:17.906Z,5.03
2022-10-20T00:03:45.727Z,4.40
2022-10-20T00:06:18.138Z,4.70
2022-10-20T00:08:46.115Z,4.65
2022-10-20T00:11:15.409Z,4.72
2022-10-20T00:13:43.505Z,4.68
2022-10-20T00:16:10.592Z,4.25
2022-10-20T00:18:37.727Z,4.05
2022-10-20T00:21:09.612Z,4.13
2022-10-20T00:23:36.886Z,4.53
2022-10-20T00:26:10.543Z,4.53
2022-10-20T00:28:37.451Z,4.65
2022-10-20T00:31:05.376Z,4.10
2022-10-20T00:33:33.020Z,4.40
2022-10-20T00:36:04.567Z,4.20
2022-10-20T00:38:31.814Z,4.50
2022-10-20T00:41:03.352Z,4.32
2022-10-20T00:43:45.767Z,4.60
2022-10-20T00:46:16.088Z,4.50
2022-10-20T00:48:46.784Z,4.65
2022-10-20T00:51:16.723Z,4.38
2022-10-20T00:53:45.399Z,5.03
2022-10-20T00:56:12.882Z,4.15
2022-10-20T00:58:39.883Z,4.03
2022-10-20T01:01:07.035Z,4.40
2022-10-20T01:03:45.564Z,4.28
2022-10-20T01:06:14.872Z,4.55
2022-10-20T01:08:41.757Z,3.88
2022-10-20T01:11:42.375Z,4.30
2022-10-20T01:14:31.027Z,4.10
2022-10-20T01:17:29.025Z,3.95
2022-10-20T01:20:18.431Z,4.80
2022-10-20T01:23:06.944Z,4.32
2022-10-20T01:25:55.678Z,4.32
2022-10-20T01:28:34.524Z,4.80
2022-10-20T01:31:07.861Z,4.25
2022-10-20T01:33:52.281Z,4.68
2022-10-20T01:36:37.473Z,4.22
2022-10-20T01:39:16.380Z,4.18
2022-10-20T01:41:53.423Z,4.70
2022-10-20T01:44:23.832Z,4.20
2022-10-20T01:46:52.820Z,4.85
2022-10-20T01:49:19.901Z,4.65
2022-10-20T01:51:46.699Z,5.20
2022-10-20T01:54:40.119Z,4.47
2022-10-20T01:57:33.085Z,4.72
2022-10-20T02:00:12.770Z,4.55
2022-10-20T02:02:39.651Z,4.20
2022-10-20T02:05:44.370Z,5.53
2022-10-20T02:08:13.551Z,4.93
2022-10-20T02:10:46.014Z,4.68
2022-10-20T02:13:14.314Z,4.50
2022-10-20T02:15:46.381Z,4.38
2022-10-20T02:18:18.341Z,5.05
2022-10-20T02:20:48.999Z,5.13
2022-10-20T02:23:16.109Z,4.47
2022-10-20T02:25:43.144Z,5.28
2022-10-20T02:28:13.953Z,4.70
2022-10-20T02:30:41.865Z,5.38
2022-10-20T02:33:09.234Z,4.55
2022-10-20T02:35:36.311Z,4.97
2022-10-20T02:38:03.684Z,5.28
2022-10-20T02:40:30.976Z,5.85
2022-10-20T02:42:57.861Z,5.57
2022-10-20T02:45:24.707Z,5.50
2022-10-20T02:47:51.546Z,5.60
2022-10-20T02:50:18.487Z,5.20
2022-10-20T02:52:45.324Z,6.10
2022-10-20T02:55:12.237Z,5.80
2022-10-20T02:57:39.246Z,5.60
2022-10-20T03:00:07.750Z,5.20
2022-10-20T03:02:34.636Z,5.22
2022-10-20T03:05:01.496Z,5.53
2022-10-20T03:07:28.482Z,4.43
2022-10-20T03:09:55.418Z,5.50
2022-10-20T03:12:22.277Z,5.47
2022-10-20T03:14:49.296Z,5.68
2022-10-20T03:17:16.078Z,5.78
2022-10-20T03:19:42.919Z,6.20
2022-10-20T03:22:09.956Z,6.22
2022-10-20T03:24:36.813Z,6.70
2022-10-20T03:27:03.725Z,6.65
2022-10-20T03:29:30.590Z,6.40
2022-10-20T03:31:57.570Z,6.47
2022-10-20T03:34:24.747Z,7.82
2022-10-20T03:36:51.566Z,6.53
2022-10-20T03:39:18.472Z,7.50
2022-10-20T03:41:45.309Z,7.32
2022-10-20T03:44:12.264Z,8.10
2022-10-20T03:46:39.098Z,6.50
2022-10-20T03:49:05.984Z,7.05
2022-10-20T03:51:32.839Z,7.70
2022-10-20T03:53:59.725Z,7.32
2022-10-20T03:56:26.584Z,6.63
2022-10-20T03:58:53.456Z,6.95
2022-10-20T04:01:24.706Z,7.78
2022-10-20T04:03:51.524Z,8.20
2022-10-20T04:06:18.334Z,8.88
2022-10-20T04:08:45.229Z,8.52
2022-10-20T04:11:12.273Z,8.48
2022-10-20T04:13:39.115Z,8.35
2022-10-20T04:16:06.301Z,8.02
2022-10-20T04:18:33.161Z,7.25
2022-10-20T04:21:00.089Z,8.02
2022-10-20T04:23:26.893Z,7.10
2022-10-20T04:25:53.715Z,8.40
2022-10-20T04:28:21.191Z,8.88
2022-10-20T04:30:49.173Z,7.90
2022-10-20T04:33:16.533Z,8.32
2022-10-20T04:35:43.617Z,8.38
2022-10-20T04:38:10.704Z,8.52
2022-10-20T04:40:37.631Z,10.75
2022-10-20T04:43:04.457Z,8.88
2022-10-20T04:45:31.355Z,9.35
2022-10-20T04:47:58.172Z,8.10
2022-10-20T04:50:25.006Z,9.95
2022-10-20T04:52:51.792Z,9.15
2022-10-20T04:55:18.873Z,9.60
2022-10-20T04:57:45.721Z,9.65
2022-10-20T05:00:13.246Z,9.45
2022-10-20T05:02:40.065Z,9.50
2022-10-20T05:05:07.208Z,11.23
2022-10-20T05:07:34.494Z,9.20
2022-10-20T05:10:01.667Z,9.57
2022-10-20T05:12:28.610Z,9.15
2022-10-20T05:14:55.454Z,8.85
2022-10-20T05:17:22.415Z,8.18
2022-10-20T05:19:49.293Z,8.98
2022-10-20T05:22:16.188Z,9.48
2022-10-20T05:24:42.993Z,9.63
2022-10-20T05:27:09.808Z,9.20
2022-10-20T05:29:36.602Z,9.98
2022-10-20T05:32:03.584Z,9.95
2022-10-20T05:34:30.525Z,10.00
2022-10-20T05:36:57.531Z,8.48
2022-10-20T05:39:24.304Z,8.20
2022-10-20T05:41:51.145Z,8.73
2022-10-20T05:44:18.003Z,9.38
2022-10-20T05:46:44.877Z,10.15
2022-10-20T05:49:14.293Z,11.00
2022-10-20T05:51:41.650Z,9.43
2022-10-20T05:54:11.695Z,10.05
2022-10-20T05:56:38.647Z,9.75
2022-10-20T05:59:05.550Z,10.73
2022-10-20T06:01:47.570Z,9.38
2022-10-20T06:04:17.752Z,10.93
2022-10-20T06:06:45.357Z,11.98
2022-10-20T06:09:12.699Z,8.27
2022-10-20T06:11:39.974Z,9.75
2022-10-20T06:14:08.730Z,9.80
2022-10-20T06:16:36.033Z,10.43
2022-10-20T06:19:03.203Z,10.60
2022-10-20T06:21:32.981Z,11.02
2022-10-20T06:24:00.847Z,11.77
2022-10-20T06:26:29.952Z,10.80
2022-10-20T06:29:03.638Z,10.00
2022-10-20T06:31:33.693Z,10.45
2022-10-20T06:34:01.347Z,9.60
2022-10-20T06:36:28.536Z,10.60
2022-10-20T06:38:57.896Z,10.30
2022-10-20T06:41:26.342Z,11.63
2022-10-20T06:44:00.446Z,10.25
2022-10-20T06:46:29.969Z,10.80
2022-10-20T06:51:26.131Z,11.65
2022-10-20T06:53:53.204Z,12.23
2022-10-20T06:56:23.651Z,11.75
2022-10-20T06:58:52.537Z,10.02
2022-10-20T07:01:25.539Z,12.35
2022-10-20T07:03:55.419Z,10.93
2022-10-20T07:06:30.952Z,11.23
2022-10-20T07:08:59.900Z,10.38
2022-10-20T07:11:31.461Z,12.10
2022-10-20T07:13:59.462Z,11.98
2022-10-20T07:16:29.542Z,13.35
2022-10-20T07:18:57.461Z,12.65
2022-10-20T07:21:34.637Z,11.85
2022-10-20T07:24:05.649Z,11.85
2022-10-20T07:26:35.089Z,13.40
2022-10-20T07:29:03.846Z,12.57
2022-10-20T07:31:38.611Z,12.27
2022-10-20T07:34:23.374Z,12.60
2022-10-20T07:36:51.527Z,12.50
2022-10-20T07:39:18.583Z,12.57
2022-10-20T07:41:47.416Z,12.02
2022-10-20T07:44:14.838Z,11.75
2022-10-20T07:46:41.800Z,11.48
2022-10-20T07:49:42.428Z,11.45
2022-10-20T07:51:55.811Z,11.60
2022-10-20T07:54:22.938Z,9.65
2022-10-20T07:56:49.769Z,11.98
2022-10-20T07:59:16.648Z,9.32
2022-10-20T08:01:44.135Z,12.10
2022-10-20T08:04:11.616Z,10.85
2022-10-20T08:06:39.409Z,10.63
2022-10-20T08:09:07.386Z,11.15
2022-10-20T08:11:35.565Z,9.90
2022-10-20T08:14:02.501Z,9.52
2022-10-20T08:16:32.528Z,9.73
2022-10-20T08:21:40.114Z,10.15
2022-10-20T08:24:06.969Z,10.57
2022-10-20T08:26:33.818Z,9.90
2022-10-20T08:29:02.666Z,10.30
2022-10-20T08:31:29.672Z,9.73
2022-10-20T08:33:57.461Z,9.68
2022-10-20T08:36:24.653Z,9.73
2022-10-20T08:38:51.568Z,9.60
2022-10-20T08:41:20.895Z,8.73
2022-10-20T08:43:50.754Z,8.00
2022-10-20T08:46:20.275Z,10.02
2022-10-20T08:48:48.870Z,9.80
2022-10-20T08:51:22.948Z,9.13
2022-10-20T08:53:52.824Z,7.80
2022-10-20T08:56:23.672Z,10.27
2022-10-20T08:58:50.899Z,9.18
2022-10-20T09:01:24.249Z,8.27
2022-10-20T09:04:19.768Z,8.18
2022-10-20T09:06:51.154Z,8.25
2022-10-20T09:09:21.137Z,8.68
2022-10-20T09:11:48.514Z,8.07
2022-10-20T09:14:16.801Z,7.95
2022-10-20T09:17:00.958Z,9.20
2022-10-20T09:19:28.842Z,9.20
2022-10-20T09:21:59.516Z,8.38
2022-10-20T09:24:30.206Z,8.30
2022-10-20T09:27:15.884Z,9.07
2022-10-20T09:29:42.736Z,9.35
2022-10-20T09:32:51.395Z,8.65
2022-10-20T09:35:20.623Z,7.63
2022-10-20T09:38:04.644Z,6.82
2022-10-20T09:40:31.771Z,7.30
2022-10-20T09:43:08.956Z,8.10
2022-10-20T09:45:39.122Z,7.13
2022-10-20T09:48:24.996Z,7.55
2022-10-20T09:50:56.342Z,7.53
2022-10-20T09:53:36.400Z,6.80
2022-10-20T09:56:03.384Z,6.90
2022-10-20T09:58:37.945Z,7.90
2022-10-20T10:01:23.653Z,7.40
2022-10-20T10:03:59.811Z,7.10
2022-10-20T10:06:38.808Z,8.02
2022-10-20T10:09:26.352Z,6.35
2022-10-20T10:12:12.927Z,8.43
2022-10-20T10:14:54.855Z,6.78
2022-10-20T10:17:32.236Z,7.32
2022-10-20T10:20:00.955Z,7.65
2022-10-20T10:22:28.428Z,8.30
2022-10-20T10:24:56.356Z,6.93
2022-10-20T10:27:31.672Z,6.60
2022-10-20T10:30:24.361Z,5.88
2022-10-20T10:32:51.188Z,7.65
2022-10-20T10:35:40.935Z,8.25
2022-10-20T10:38:11.033Z,6.80
2022-10-20T10:41:04.281Z,6.70
2022-10-20T10:43:44.910Z,6.82
2022-10-20T10:50:10.035Z,7.00
2022-10-20T10:52:57.988Z,6.05
2022-10-20T10:55:54.873Z,7.43
2022-10-20T10:58:37.451Z,6.07
2022-10-20T11:01:35.216Z,6.75
2022-10-20T11:04:13.147Z,7.80
2022-10-20T11:06:44.972Z,7.65
2022-10-20T11:09:26.734Z,6.00
2022-10-20T11:11:56.725Z,7.03
2022-10-20T11:14:49.537Z,6.88
2022-10-20T11:17:16.337Z,5.28
2022-10-20T11:20:10.706Z,8.05
2022-10-20T11:22:37.427Z,7.57
2022-10-20T11:25:24.371Z,8.25
2022-10-20T11:27:51.525Z,7.68
2022-10-20T11:30:22.058Z,8.20
2022-10-20T11:33:14.806Z,7.88
2022-10-20T11:35:58.653Z,7.22
2022-10-20T11:38:41.248Z,7.75
2022-10-20T11:41:29.928Z,7.82
2022-10-20T11:44:06.594Z,7.53
2022-10-20T11:46:42.084Z,7.47
2022-10-20T11:49:12.171Z,9.07
2022-10-20T11:51:56.115Z,8.60
2022-10-20T11:54:32.099Z,7.25
2022-10-20T11:57:16.436Z,8.45
2022-10-20T12:00:11.918Z,8.75
2022-10-20T12:03:16.698Z,8.82
2022-10-20T12:06:05.109Z,8.32
2022-10-20T12:08:40.297Z,8.82
2022-10-20T12:11:26.611Z,7.68
2022-10-20T12:14:24.599Z,8.35
2022-10-20T12:17:00.232Z,8.18
2022-10-20T12:19:33.147Z,9.70
2022-10-20T12:22:14.855Z,8.38
2022-10-20T12:25:04.683Z,11.18
2022-10-20T12:27:32.734Z,8.50
2022-10-20T12:30:04.267Z,8.98
2022-10-20T12:32:54.960Z,8.05
2022-10-20T12:35:25.053Z,11.35
2022-10-20T12:38:04.227Z,9.55
2022-10-20T12:40:31.224Z,8.48
2022-10-20T12:42:58.667Z,8.35
2022-10-20T12:45:41.898Z,10.18
2022-10-20T12:48:18.135Z,9.13
2022-10-20T12:50:47.104Z,10.10
2022-10-20T12:53:28.425Z,11.48
2022-10-20T12:56:08.818Z,9.10
2022-10-20T12:58:37.657Z,11.32
2022-10-20T13:01:08.428Z,10.45
2022-10-20T13:03:42.882Z,9.52
2022-10-20T13:06:27.813Z,9.57
2022-10-20T13:09:03.879Z,11.20
2022-10-20T13:11:33.892Z,10.98
2022-10-20T13:14:32.794Z,12.45
2022-10-20T13:17:17.869Z,13.65
2022-10-20T13:19:47.358Z,10.55
2022-10-20T13:22:37.852Z,12.10
2022-10-20T13:25:13.163Z,12.00
2022-10-20T13:27:40.213Z,12.07
2022-10-20T13:30:08.913Z,12.57
2022-10-20T13:33:02.016Z,13.63
2022-10-20T13:35:47.409Z,10.65
2022-10-20T13:38:24.825Z,12.13
2022-10-20T13:40:58.133Z,13.02
2022-10-20T13:43:57.551Z,11.98
2022-10-20T13:47:01.417Z,14.00
2022-10-20T13:49:43.275Z,14.35
2022-10-20T13:52:16.445Z,13.48
2022-10-20T13:54:48.153Z,12.50
2022-10-20T13:57:24.461Z,12.80
2022-10-20T14:00:03.786Z,14.15
2022-10-20T14:02:34.927Z,14.00
2022-10-20T14:05:12.618Z,14.27
2022-10-20T14:07:42.020Z,16.92
2022-10-20T14:12:57.010Z,15.40
2022-10-20T14:15:33.105Z,17.38
2022-10-20T14:18:03.514Z,14.63
2022-10-20T14:20:32.803Z,17.70
2022-10-20T14:23:02.248Z,15.02
2022-10-20T14:25:31.720Z,16.35
2022-10-20T14:30:26.674Z,16.52
2022-10-20T14:32:54.512Z,18.05
2022-10-20T14:36:02.779Z,16.70
2022-10-20T14:38:31.829Z,14.57
2022-10-20T14:40:59.613Z,17.35
2022-10-20T14:43:26.424Z,16.55
2022-10-20T14:46:04.257Z,17.55
2022-10-20T14:48:51.746Z,14.02
2022-10-20T14:51:40.357Z,14.57
2022-10-20T14:54:31.491Z,14.02
2022-10-20T14:57:19.647Z,18.30
2022-10-20T14:59:55.922Z,15.45
2022-10-20T15:02:26.061Z,17.45
2022-10-20T15:04:53.000Z,18.67
2022-10-20T15:07:32.081Z,15.98
2022-10-20T15:10:07.326Z,18.15
2022-10-20T15:12:45.997Z,18.63
2022-10-20T15:15:12.787Z,16.65
2022-10-20T15:17:44.028Z,14.95
2022-10-20T15:20:29.792Z,19.30
2022-10-20T15:22:59.169Z,14.85
2022-10-20T15:25:31.946Z,17.25
2022-10-20T15:27:59.654Z,14.77
2022-10-20T15:30:26.871Z,15.13
2022-10-20T15:32:54.968Z,17.45
2022-10-20T15:35:24.289Z,15.98
2022-10-20T15:37:53.262Z,14.77
2022-10-20T15:40:21.274Z,13.65
2022-10-20T15:42:48.963Z,15.38
2022-10-20T15:45:19.941Z,14.15
2022-10-20T15:47:46.993Z,12.00
2022-10-20T15:50:14.394Z,12.55
2022-10-20T15:52:41.966Z,17.27
2022-10-20T15:55:25.216Z,15.02
2022-10-20T15:57:53.666Z,14.13
2022-10-20T16:00:24.182Z,12.18
2022-10-20T16:02:51.439Z,13.70
2022-10-20T16:05:19.973Z,12.48
2022-10-20T16:07:47.307Z,15.20
2022-10-20T16:10:14.316Z,13.75
2022-10-20T16:12:41.491Z,18.10
2022-10-20T16:15:09.950Z,11.65
2022-10-20T16:17:37.470Z,12.98
2022-10-20T16:20:07.475Z,18.17
2022-10-20T16:22:35.674Z,18.33
2022-10-20T16:25:03.406Z,18.60
2022-10-20T16:27:32.266Z,16.80
2022-10-20T16:29:59.894Z,18.60
2022-10-20T16:32:31.321Z,20.70
2022-10-20T16:35:01.354Z,26.75
2022-10-20T16:37:28.483Z,19.42
2022-10-20T16:39:55.365Z,20.15
2022-10-20T16:42:22.228Z,19.30
2022-10-20T16:44:49.073Z,12.82
2022-10-20T16:47:15.967Z,12.27
2022-10-20T16:49:42.864Z,14.13
2022-10-20T16:52:10.510Z,14.00
2022-10-20T16:54:38.073Z,14.27
2022-10-20T16:57:07.828Z,17.45
2022-10-20T16:59:34.692Z,15.75
2022-10-20T17:02:01.489Z,17.85
2022-10-20T17:04:28.486Z,13.88
2022-10-20T17:06:55.381Z,14.48
2022-10-20T17:09:22.287Z,21.67
2022-10-20T17:11:49.106Z,12.13
2022-10-20T17:14:15.976Z,13.48
2022-10-20T17:16:42.923Z,14.48
2022-10-20T17:19:09.869Z,11.77
2022-10-20T17:21:36.777Z,17.23
2022-10-20T17:24:04.353Z,20.33
2022-10-20T17:26:31.539Z,22.27
2022-10-20T17:29:00.419Z,13.38
2022-10-20T17:31:28.262Z,21.00
2022-10-20T17:33:56.993Z,22.92
2022-10-20T17:36:26.318Z,16.83
2022-10-20T17:41:25.118Z,16.30
2022-10-20T17:43:52.059Z,14.77
2022-10-20T17:46:19.950Z,12.88
2022-10-20T17:48:47.348Z,18.58
2022-10-20T17:51:19.456Z,20.55
2022-10-20T17:53:49.034Z,22.40
2022-10-20T17:56:27.176Z,18.35
2022-10-20T17:58:55.781Z,21.65
2022-10-20T18:01:33.883Z,15.57
2022-10-20T18:04:10.897Z,18.88
2022-10-20T18:06:38.244Z,16.15
2022-10-20T18:09:07.763Z,14.35
2022-10-20T18:11:35.436Z,19.30
2022-10-20T18:14:03.494Z,18.20
2022-10-20T18:16:33.610Z,18.50
2022-10-20T18:19:00.935Z,16.90
2022-10-20T18:21:29.254Z,15.75
2022-10-20T18:23:58.106Z,20.60
2022-10-20T18:26:25.234Z,23.15
2022-10-20T18:28:52.577Z,13.57
2022-10-20T18:31:24.933Z,14.35
2022-10-20T18:33:58.767Z,20.52
2022-10-20T18:36:28.733Z,16.15
2022-10-20T18:38:56.384Z,16.17
2022-10-20T18:41:24.747Z,19.35
2022-10-20T18:43:58.146Z,13.32
2022-10-20T18:46:27.141Z,19.40
2022-10-20T18:55:21.304Z,13.18
2022-10-20T18:57:48.139Z,18.10
2022-10-20T19:00:15.029Z,12.93
2022-10-20T19:02:41.842Z,23.85
2022-10-20T19:05:08.975Z,14.15
2022-10-20T19:07:36.210Z,18.92
2022-10-20T19:10:04.162Z,15.40
2022-10-20T19:12:31.044Z,13.70
2022-10-20T19:15:00.423Z,16.77
2022-10-20T19:17:27.250Z,23.65
2022-10-20T19:19:54.665Z,18.40
2022-10-20T19:22:25.592Z,16.88
2022-10-20T19:24:55.311Z,20.63
2022-10-20T19:27:26.550Z,18.55
2022-10-20T19:29:55.851Z,23.10
2022-10-20T19:32:26.036Z,23.15
2022-10-20T19:34:52.906Z,20.60
2022-10-20T19:37:19.775Z,16.38
2022-10-20T19:39:46.580Z,19.08
2022-10-20T19:42:13.849Z,13.18
2022-10-20T19:44:41.222Z,13.38
2022-10-20T19:47:08.517Z,20.95
2022-10-20T19:49:35.874Z,22.75
2022-10-20T19:52:03.430Z,14.98
2022-10-20T19:54:30.305Z,16.10
2022-10-20T19:56:57.581Z,19.60
2022-10-20T19:59:24.662Z,26.58
2022-10-20T20:01:52.607Z,15.07
2022-10-20T20:04:21.078Z,23.65
2022-10-20T20:06:48.008Z,16.38
2022-10-20T20:09:15.778Z,20.08
2022-10-20T20:11:43.186Z,26.42
2022-10-20T20:14:16.689Z,24.20
2022-10-20T20:16:46.075Z,22.25
2022-10-20T20:19:14.688Z,15.45
2022-10-20T20:21:41.556Z,20.90
2022-10-20T20:24:11.055Z,14.70
2022-10-20T20:29:05.418Z,16.10
2022-10-20T20:31:33.352Z,22.55
2022-10-20T20:34:00.335Z,23.40
2022-10-20T20:36:28.086Z,14.27
2022-10-20T20:38:58.130Z,26.40
2022-10-20T20:41:30.386Z,16.45
2022-10-20T20:43:57.565Z,27.08
2022-10-20T20:46:31.135Z,12.50
2022-10-20T20:48:58.338Z,21.90
2022-10-20T20:51:26.100Z,17.17
2022-10-20T20:53:52.904Z,19.08
2022-10-20T20:56:21.917Z,22.35
2022-10-20T20:58:55.000Z,28.58
2022-10-20T21:01:27.555Z,17.45
2022-10-20T21:04:00.305Z,18.63
2022-10-20T21:06:33.731Z,21.15
2022-10-20T21:09:11.939Z,17.88
2022-10-20T21:11:38.831Z,16.80
2022-10-20T21:14:05.703Z,24.98
2022-10-20T21:16:34.726Z,18.02
2022-10-20T21:19:04.902Z,20.63
2022-10-20T21:21:43.532Z,16.88
2022-10-20T21:24:12.424Z,23.83
2022-10-20T21:26:39.565Z,22.70
2022-10-20T21:29:06.515Z,24.48
2022-10-20T21:31:33.339Z,24.15
2022-10-20T21:34:02.700Z,17.70
2022-10-20T21:36:32.357Z,26.02
2022-10-20T21:38:59.761Z,16.67
2022-10-20T21:41:31.480Z,17.92
2022-10-20T21:43:59.990Z,22.25
2022-10-20T21:46:42.080Z,15.07
2022-10-20T21:49:14.306Z,22.77
2022-10-20T21:51:44.092Z,27.35
2022-10-20T21:54:14.303Z,17.65
2022-10-20T21:56:44.210Z,23.67
2022-10-20T21:59:29.028Z,23.73
2022-10-20T22:02:01.267Z,19.80
2022-10-20T22:04:29.815Z,25.73
2022-10-20T22:06:56.818Z,24.53
2022-10-20T22:09:23.742Z,22.33
2022-10-20T22:11:55.456Z,14.23
2022-10-20T22:14:23.196Z,22.30
2022-10-20T22:16:50.208Z,19.83
2022-10-20T22:19:20.425Z,24.58
2022-10-20T22:21:48.977Z,19.80
2022-10-20T22:24:17.545Z,20.07
2022-10-20T22:26:45.018Z,14.25
2022-10-20T22:29:12.010Z,22.52
2022-10-20T22:31:40.096Z,13.98
2022-10-20T22:34:07.415Z,14.13
2022-10-20T22:36:34.397Z,20.45
2022-10-20T22:39:01.285Z,23.52
2022-10-20T22:41:28.237Z,18.83
2022-10-20T22:43:55.083Z,27.58
2022-10-20T22:46:21.928Z,26.95
2022-10-20T22:48:48.982Z,26.48
2022-10-20T22:51:16.439Z,26.67
2022-10-20T22:53:44.683Z,28.38
2022-10-20T22:56:17.639Z,24.73
2022-10-20T22:58:44.947Z,17.52
2022-10-20T23:01:17.961Z,19.58
2022-10-20T23:03:45.344Z,26.38
2022-10-20T23:06:15.500Z,20.88
2022-10-20T23:08:44.618Z,17.67
2022-10-20T23:11:11.824Z,13.35
2022-10-20T23:13:38.781Z,26.10
2022-10-20T23:16:06.040Z,28.48
2022-10-20T23:18:33.352Z,18.58
2022-10-20T23:21:00.192Z,26.80
2022-10-20T23:23:27.012Z,26.52
2022-10-20T23:25:58.517Z,14.60
2022-10-20T23:28:27.691Z,24.42
2022-10-20T23:31:05.820Z,22.33
2022-10-20T23:33:32.960Z,27.55
2022-10-20T23:35:59.795Z,20.67
2022-10-20T23:38:26.602Z,14.45
2022-10-20T23:40:53.411Z,23.58
2022-10-20T23:43:20.239Z,17.42
2022-10-20T23:45:47.084Z,16.15
2022-10-20T23:48:13.922Z,25.20
2022-10-20T23:50:41.345Z,23.58
2022-10-20T23:53:08.211Z,21.13
2022-10-20T23:55:35.137Z,16.27
2022-10-20T23:58:02.263Z,20.55
